Time;durP1;ratioP1;P1;durP2;ratioP2;P2;SDS_P1;SDS_P2;PMS_P1;PMS_P2;Temp;Humidity;BMP_temperature;BMP_pressure;BME280_temperature;BME280_humidity;BME280_pressure;Samples;Min_cycle;Max_cycle;Signal;HPM_P1;HPM_P2
2021/10/08 00:01:35;;;;;;;31.65;15.60;;;;;;;4.87;60.97;102337.56;5070755;28;20032;-58
2021/10/08 00:04:00;;;;;;;30.85;15.93;;;;;;;4.86;61.13;102338.47;5070428;28;20108;-59
2021/10/08 00:06:26;;;;;;;31.27;16.95;;;;;;;4.84;61.15;102340.28;5071780;28;20029;-56
2021/10/08 00:08:52;;;;;;;29.80;16.92;;;;;;;4.81;61.56;102326.16;5071123;28;20178;-59
2021/10/08 00:11:17;;;;;;;29.25;15.88;;;;;;;4.81;61.19;102336.78;5071134;28;20036;-54
2021/10/08 00:13:43;;;;;;;37.05;16.90;;;;;;;4.78;61.02;102334.19;5071362;28;20081;-58
2021/10/08 00:16:09;;;;;;;27.95;16.10;;;;;;;4.59;60.95;102306.16;5070869;28;20125;-55
2021/10/08 00:18:36;;;;;;;26.83;16.33;;;;;;;4.73;61.07;102343.09;5070671;28;20468;-59
2021/10/08 00:21:02;;;;;;;25.13;14.68;;;;;;;4.70;61.63;102340.50;5069035;28;20432;-57
2021/10/08 00:23:28;;;;;;;26.42;15.70;;;;;;;4.62;61.97;102331.78;5071311;28;20348;-56
2021/10/08 00:25:53;;;;;;;32.15;16.40;;;;;;;4.63;62.16;102333.53;5071083;28;20027;-58
2021/10/08 00:28:19;;;;;;;31.52;16.40;;;;;;;4.65;62.18;102338.81;5070706;28;20459;-59
2021/10/08 00:30:44;;;;;;;29.15;16.10;;;;;;;4.63;62.03;102344.16;5071138;28;20032;-56
2021/10/08 00:33:10;;;;;;;28.73;15.45;;;;;;;4.63;61.90;102344.16;5071219;28;20039;-58
2021/10/08 00:35:36;;;;;;;26.95;14.63;;;;;;;4.56;62.16;102335.41;5071254;28;20024;-58
2021/10/08 00:38:04;;;;;;;24.90;15.20;;;;;;;4.38;61.60;102312.69;5070795;28;20025;-57
2021/10/08 00:40:44;;;;;;;28.80;14.70;;;;;;;4.59;61.91;102342.47;5070137;28;20035;-58
2021/10/08 00:43:11;;;;;;;31.05;14.95;;;;;;;4.58;62.35;102356.59;5051222;28;20077;-58
2021/10/08 00:45:37;;;;;;;28.42;14.30;;;;;;;4.54;62.41;102349.59;5051307;28;20044;-58
2021/10/08 00:48:08;;;;;;;22.15;14.20;;;;;;;4.56;62.54;102348.66;5050497;28;20025;-58
2021/10/08 00:50:45;;;;;;;26.48;14.80;;;;;;;4.42;62.53;102335.63;5049938;28;20068;-59
2021/10/08 00:53:11;;;;;;;23.73;14.27;;;;;;;4.48;62.92;102358.53;5050642;28;20033;-57
2021/10/08 00:55:42;;;;;;;26.15;14.18;;;;;;;4.48;62.35;102347.03;5050056;28;20036;-57
2021/10/08 00:58:08;;;;;;;24.23;14.05;;;;;;;4.38;62.65;102341.88;5049803;28;20193;-58
2021/10/08 01:00:33;;;;;;;28.27;14.52;;;;;;;4.41;62.87;102351.53;5050537;28;20600;-55
2021/10/08 01:02:59;;;;;;;27.02;14.88;;;;;;;4.35;63.11;102343.66;5049789;28;20029;-57
2021/10/08 01:05:24;;;;;;;25.38;13.57;;;;;;;4.34;63.43;102342.81;5051064;28;20041;-57
2021/10/08 01:07:50;;;;;;;27.05;14.07;;;;;;;4.35;63.03;102356.94;5050117;28;20029;-56
2021/10/08 01:10:15;;;;;;;23.45;13.88;;;;;;;4.07;63.26;102305.13;5050233;28;20512;-57
2021/10/08 01:12:41;;;;;;;26.83;14.60;;;;;;;4.33;62.97;102351.63;5050467;28;20076;-52
2021/10/08 01:15:07;;;;;;;30.95;15.10;;;;;;;4.33;63.15;102350.78;5049318;28;20379;-57
2021/10/08 01:17:33;;;;;;;27.00;14.02;;;;;;;4.31;62.89;102358.75;5049472;28;20439;-60
2021/10/08 01:20:05;;;;;;;25.77;15.05;;;;;;;4.31;63.22;102364.94;5050371;28;20112;-56
2021/10/08 01:22:31;;;;;;;30.13;14.40;;;;;;;4.29;63.65;102360.53;5049608;28;20131;-58
2021/10/08 01:24:56;;;;;;;26.70;14.15;;;;;;;4.22;63.79;102364.19;5048663;28;20190;-53
2021/10/08 01:27:22;;;;;;;25.02;13.95;;;;;;;4.19;63.77;102358.91;5049726;28;20025;-55
2021/10/08 01:29:54;;;;;;;26.73;14.13;;;;;;;4.23;63.51;102364.16;5050035;28;20040;-55
2021/10/08 01:32:21;;;;;;;27.02;13.98;;;;;;;4.18;63.51;102363.34;5050216;28;20079;-54
2021/10/08 01:34:47;;;;;;;27.50;15.45;;;;;;;4.10;63.28;102358.16;5052510;28;20029;-56
2021/10/08 01:37:14;;;;;;;25.20;14.40;;;;;;;4.14;63.83;102378.41;5054071;28;20055;-57
2021/10/08 01:39:39;;;;;;;27.15;14.63;;;;;;;4.11;63.33;102373.16;5052447;28;20059;-58
2021/10/08 01:42:06;;;;;;;28.60;15.00;;;;;;;4.08;63.33;102365.22;5053875;28;20473;-53
2021/10/08 01:44:31;;;;;;;33.55;15.18;;;;;;;4.06;63.52;102364.38;5054390;28;20040;-58
2021/10/08 01:46:57;;;;;;;30.50;15.75;;;;;;;4.04;63.04;102363.50;5053894;28;20033;-57
2021/10/08 01:49:22;;;;;;;27.83;15.55;;;;;;;3.99;63.39;102352.09;5053654;28;20385;-56
2021/10/08 01:51:48;;;;;;;26.75;15.30;;;;;;;3.99;63.17;102352.97;5053426;28;20043;-58
2021/10/08 01:54:13;;;;;;;32.85;15.82;;;;;;;3.98;62.99;102355.63;5033668;28;20033;-56
2021/10/08 01:56:44;;;;;;;32.72;15.95;;;;;;;3.99;63.51;102357.38;5033682;28;20029;-57
2021/10/08 01:59:10;;;;;;;28.52;15.32;;;;;;;3.94;63.16;102348.63;5033751;28;20025;-57
2021/10/08 02:01:35;;;;;;;28.95;15.55;;;;;;;3.95;63.19;102347.72;5033788;28;20033;-58
2021/10/08 02:04:01;;;;;;;31.05;16.42;;;;;;;3.95;63.58;102358.34;5033336;28;20043;-55
2021/10/08 02:06:27;;;;;;;30.63;17.35;;;;;;;3.85;63.46;102334.56;5031998;28;20477;-58
2021/10/08 02:08:52;;;;;;;30.08;15.98;;;;;;;3.88;63.36;102347.81;5034088;28;20049;-60
2021/10/08 02:11:18;;;;;;;28.70;16.83;;;;;;;3.88;63.60;102345.16;5033523;28;20064;-58
2021/10/08 02:13:43;;;;;;;31.17;16.13;;;;;;;3.84;63.18;102348.72;5033315;28;20130;-58
2021/10/08 02:16:08;;;;;;;29.60;17.02;;;;;;;3.66;62.90;102312.72;5032489;28;20063;-57
2021/10/08 02:18:34;;;;;;;31.75;17.05;;;;;;;3.86;62.83;102352.25;5033750;28;20037;-57
2021/10/08 02:21:00;;;;;;;32.92;16.95;;;;;;;3.86;62.87;102349.59;5033534;28;20432;-59
2021/10/08 02:23:25;;;;;;;30.55;17.75;;;;;;;3.85;63.50;102342.50;5032081;28;20029;-58
2021/10/08 02:25:51;;;;;;;30.25;17.67;;;;;;;3.82;63.27;102345.22;5033684;28;20025;-58
2021/10/08 02:28:16;;;;;;;28.75;17.48;;;;;;;3.83;63.35;102339.00;5033627;28;20477;-58
2021/10/08 02:30:42;;;;;;;32.42;17.65;;;;;;;3.75;63.78;102330.28;5033608;28;20037;-58
2021/10/08 02:33:07;;;;;;;26.20;16.63;;;;;;;3.79;63.42;102341.75;5033239;28;20025;-55
2021/10/08 02:35:33;;;;;;;27.92;17.23;;;;;;;3.79;63.83;102339.09;5032571;28;20029;-56
2021/10/08 02:37:58;;;;;;;29.77;17.35;;;;;;;3.74;63.80;102331.19;5033463;28;20030;-58
2021/10/08 02:40:23;;;;;;;30.25;17.65;;;;;;;3.75;64.06;102334.72;5033359;28;20029;-55
2021/10/08 02:42:49;;;;;;;28.27;17.48;;;;;;;3.48;64.45;102295.25;5032931;28;20124;-58
2021/10/08 02:45:15;;;;;;;31.85;17.83;;;;;;;3.65;64.19;102323.34;5031866;28;20041;-59
2021/10/08 02:47:41;;;;;;;28.65;17.15;;;;;;;3.68;63.93;102336.56;5033544;28;20600;-57
2021/10/08 02:50:07;;;;;;;26.52;15.88;;;;;;;3.67;64.28;102340.09;5033222;28;20029;-57
2021/10/08 02:52:32;;;;;;;26.15;16.40;;;;;;;3.64;64.38;102330.41;5032516;28;20029;-57
2021/10/08 02:54:58;;;;;;;35.60;17.23;;;;;;;3.58;64.41;102322.53;5032540;28;20437;-56
2021/10/08 02:57:23;;;;;;;31.23;18.52;;;;;;;3.63;64.71;102335.75;5033446;28;20043;-58
2021/10/08 02:59:49;;;;;;;31.45;17.48;;;;;;;3.61;64.83;102337.50;5034021;28;20472;-58
2021/10/08 03:02:14;;;;;;;28.15;16.95;;;;;;;3.61;64.91;102340.16;5032165;28;20438;-56
2021/10/08 03:04:42;;;;;;;31.58;17.30;;;;;;;3.59;64.56;102343.69;5032453;28;20026;-53
2021/10/08 03:07:08;;;;;;;30.33;17.67;;;;;;;3.59;64.62;102342.84;5032774;28;20037;-59
2021/10/08 03:09:33;;;;;;;29.60;17.23;;;;;;;3.57;64.78;102348.13;5030588;28;20099;-58
2021/10/08 03:11:58;;;;;;;29.10;17.02;;;;;;;3.57;64.92;102344.63;5032185;28;20064;-57
2021/10/08 03:14:24;;;;;;;33.63;17.15;;;;;;;3.53;64.58;102338.47;5032032;28;20390;-57
2021/10/08 03:16:49;;;;;;;33.58;17.45;;;;;;;3.49;64.75;102333.22;5031793;28;20041;-61
2021/10/08 03:19:15;;;;;;;33.83;17.10;;;;;;;3.53;65.17;102349.06;5032183;28;20044;-58
2021/10/08 03:21:40;;;;;;;31.88;17.30;;;;;;;3.47;65.01;102341.19;5032197;28;20044;-58
2021/10/08 03:24:06;;;;;;;28.95;16.92;;;;;;;3.51;64.98;102350.84;5031771;28;20039;-59
2021/10/08 03:26:32;;;;;;;34.20;17.05;;;;;;;3.47;64.72;102343.84;5031956;28;20083;-55
2021/10/08 03:28:57;;;;;;;33.70;17.77;;;;;;;3.50;65.32;102348.25;5031532;28;20496;-59
2021/10/08 03:31:22;;;;;;;32.50;17.13;;;;;;;3.44;64.78;102339.44;5031815;28;20121;-59
2021/10/08 03:33:48;;;;;;;31.77;18.35;;;;;;;3.50;65.49;102358.84;5031923;28;20120;-60
2021/10/08 03:36:21;;;;;;;32.50;17.45;;;;;;;3.49;65.15;102363.25;5030410;28;20408;-58
2021/10/08 03:38:47;;;;;;;34.13;16.83;;;;;;;3.49;64.78;102357.94;5031473;28;20029;-57
2021/10/08 03:41:16;;;;;;;34.50;17.73;;;;;;;3.49;65.09;102351.75;5031815;28;20402;-56
2021/10/08 03:43:42;;;;;;;33.97;17.85;;;;;;;3.47;65.10;102359.72;5031174;28;20462;-58
2021/10/08 03:46:09;;;;;;;26.83;16.75;;;;;;;3.49;65.74;102359.69;5030127;28;20040;-56
2021/10/08 03:49:00;;;;;;;31.50;17.90;;;;;;;3.51;65.57;102365.88;5030616;28;20037;-57
2021/10/08 03:51:23;;;;;;;35.33;18.25;;;;;;;3.50;65.56;102354.41;5031342;28;20572;-58
2021/10/08 03:53:48;;;;;;;31.13;17.60;;;;;;;3.52;65.11;102363.22;5029956;28;20117;-57
2021/10/08 03:56:14;;;;;;;32.10;17.70;;;;;;;3.30;64.64;102323.69;5031588;28;20034;-57
2021/10/08 03:58:39;;;;;;;28.98;17.05;;;;;;;3.57;65.36;102357.88;5031391;28;20025;-57
2021/10/08 04:01:05;;;;;;;29.98;17.65;;;;;;;3.38;64.65;102322.75;5031019;28;20076;-57
2021/10/08 04:03:30;;;;;;;31.58;16.67;;;;;;;3.65;64.92;102360.44;5031352;28;20029;-57
2021/10/08 04:05:55;;;;;;;33.15;18.83;;;;;;;3.67;64.66;102354.22;5030443;28;20488;-59
2021/10/08 04:08:21;;;;;;;38.33;18.45;;;;;;;3.71;64.24;102355.06;5029392;28;20029;-56
2021/10/08 04:10:46;;;;;;;32.20;17.70;;;;;;;3.79;64.35;102363.78;5029642;28;20061;-57
2021/10/08 04:13:12;;;;;;;32.63;17.40;;;;;;;3.85;64.14;102361.06;5031935;28;20148;-57
2021/10/08 04:15:37;;;;;;;39.15;18.23;;;;;;;3.92;64.04;102361.88;5031358;28;20393;-59
2021/10/08 04:18:03;;;;;;;29.98;16.27;;;;;;;3.99;63.50;102363.59;5030850;28;20030;-55
2021/10/08 04:20:29;;;;;;;33.03;17.38;;;;;;;4.07;64.07;102360.81;5030251;28;20022;-61
2021/10/08 04:22:54;;;;;;;40.22;17.67;;;;;;;4.16;63.08;102368.66;5031513;28;20037;-54
2021/10/08 04:25:20;;;;;;;29.70;17.33;;;;;;;4.29;63.21;102376.44;5031279;28;20499;-58
2021/10/08 04:27:45;;;;;;;33.15;17.27;;;;;;;4.41;62.75;102371.00;5031020;28;20541;-60
2021/10/08 04:30:11;;;;;;;36.33;18.23;;;;;;;4.45;62.10;102362.09;5030748;28;20026;-59
2021/10/08 04:32:36;;;;;;;32.05;17.38;;;;;;;4.37;62.22;102331.25;5030833;28;20056;-54
2021/10/08 04:35:02;;;;;;;31.63;17.67;;;;;;;4.70;61.48;102376.75;5031448;28;20160;-58
2021/10/08 04:37:28;;;;;;;33.08;18.05;;;;;;;4.82;61.55;102373.03;5030728;28;20393;-57
2021/10/08 04:39:54;;;;;;;34.13;18.23;;;;;;;4.99;60.96;102359.53;5029951;28;20022;-58
2021/10/08 04:42:19;;;;;;;30.17;17.85;;;;;;;5.94;58.53;102363.13;5030913;28;20040;-55
2021/10/08 04:44:45;;;;;;;30.90;16.38;;;;;;;7.68;53.91;102354.56;5031155;28;20115;-58
2021/10/08 04:47:12;;;;;;;31.95;16.85;;;;;;;9.25;48.78;102352.47;5030881;28;20025;-60
2021/10/08 04:49:37;;;;;;;29.08;16.10;;;;;;;10.03;46.24;102349.69;5030417;28;20033;-59
2021/10/08 04:52:03;;;;;;;27.95;16.08;;;;;;;10.42;45.22;102362.50;5031048;28;20029;-58
2021/10/08 04:54:29;;;;;;;24.88;15.63;;;;;;;11.21;43.41;102350.38;5030960;28;20096;-56
2021/10/08 04:56:55;;;;;;;27.98;15.65;;;;;;;12.68;40.13;102355.41;5030929;28;20029;-58
2021/10/08 04:59:20;;;;;;;25.23;15.07;;;;;;;14.59;36.35;102354.34;5030163;28;20033;-59
2021/10/08 05:01:46;;;;;;;25.48;14.90;;;;;;;16.41;32.65;102354.22;5030626;28;20405;-58
2021/10/08 05:04:11;;;;;;;28.35;15.27;;;;;;;17.86;29.93;102352.63;5030482;28;20025;-52
2021/10/08 05:06:37;;;;;;;28.50;15.38;;;;;;;19.17;27.88;102349.38;5030480;28;20389;-58
2021/10/08 05:09:03;;;;;;;32.30;16.33;;;;;;;20.42;25.57;102344.03;5031460;28;20057;-59
2021/10/08 05:11:28;;;;;;;30.40;16.45;;;;;;;21.31;24.15;102342.97;5034032;28;20037;-60
2021/10/08 05:13:53;;;;;;;27.83;16.13;;;;;;;22.27;22.81;102346.47;5034571;28;20108;-61
2021/10/08 05:16:19;;;;;;;29.10;16.10;;;;;;;23.31;21.18;102350.59;5034470;28;20151;-61
2021/10/08 05:18:44;;;;;;;30.58;16.80;;;;;;;24.08;20.25;102320.41;5033864;28;20021;-61
2021/10/08 05:21:10;;;;;;;26.88;16.98;;;;;;;24.96;19.33;102359.16;5049630;28;20358;-61
2021/10/08 05:23:35;;;;;;;27.90;17.80;;;;;;;25.55;18.27;102351.25;5054060;28;20047;-62
2021/10/08 05:26:01;;;;;;;27.70;18.58;;;;;;;26.37;17.71;102352.69;5053902;28;20055;-61
2021/10/08 05:28:27;;;;;;;27.00;17.98;;;;;;;27.25;16.28;102352.28;5054107;28;20457;-61
2021/10/08 05:30:53;;;;;;;27.77;17.33;;;;;;;28.05;15.77;102350.56;5050461;28;20085;-61
2021/10/08 05:33:19;;;;;;;31.33;18.77;;;;;;;28.71;15.11;102349.31;5054322;28;20037;-62
2021/10/08 05:35:44;;;;;;;25.83;16.80;;;;;;;29.39;14.38;102348.59;5054358;28;20029;-63
2021/10/08 05:38:10;;;;;;;27.83;16.92;;;;;;;29.89;13.80;102349.78;5053561;28;20112;-62
2021/10/08 05:40:35;;;;;;;25.42;17.75;;;;;;;30.38;13.35;102350.19;5053639;28;20053;-62
2021/10/08 05:43:02;;;;;;;31.50;18.20;;;;;;;30.86;12.92;102354.31;5053903;28;20414;-64
2021/10/08 05:45:28;;;;;;;28.00;17.60;;;;;;;31.10;12.91;102347.53;5053911;28;20083;-64
2021/10/08 05:47:53;;;;;;;26.80;17.00;;;;;;;31.51;12.25;102351.47;5053386;28;20112;-62
2021/10/08 05:50:19;;;;;;;32.78;17.80;;;;;;;32.14;11.73;102349.69;5053899;28;20108;-64
2021/10/08 05:52:44;;;;;;;29.65;17.80;;;;;;;32.52;11.41;102345.56;5053606;28;20028;-64
2021/10/08 05:55:10;;;;;;;26.65;16.63;;;;;;;32.93;11.05;102348.22;5047599;28;20120;-63
2021/10/08 05:57:35;;;;;;;24.02;16.20;;;;;;;33.31;10.44;102343.06;5032644;28;20029;-64
2021/10/08 06:00:01;;;;;;;26.70;16.27;;;;;;;33.68;10.48;102348.13;5039778;28;20036;-62
2021/10/08 06:02:26;;;;;;;25.25;16.90;;;;;;;34.12;9.68;102349.28;5053288;28;20113;-65
2021/10/08 06:04:52;;;;;;;30.50;16.35;;;;;;;34.51;9.41;102342.91;5053604;28;20033;-64
2021/10/08 06:07:17;;;;;;;24.80;15.70;;;;;;;35.06;9.04;102340.34;5053195;28;20118;-64
2021/10/08 06:09:45;;;;;;;26.92;15.55;;;;;;;35.65;8.68;102350.28;5053093;28;20075;-63
2021/10/08 06:12:12;;;;;;;26.55;14.98;;;;;;;36.14;8.35;102349.50;5052078;28;20048;-63
2021/10/08 06:14:38;;;;;;;19.77;13.80;;;;;;;36.47;8.05;102346.22;5052904;28;20159;-67
2021/10/08 06:17:04;;;;;;;16.52;11.80;;;;;;;36.68;7.70;102335.63;5039461;28;20212;-63
2021/10/08 06:19:29;;;;;;;18.83;11.52;;;;;;;36.94;7.35;102343.78;5045567;28;20060;-64
2021/10/08 06:21:55;;;;;;;22.08;12.00;;;;;;;36.96;7.53;102336.03;5044121;28;20366;-64
2021/10/08 06:24:20;;;;;;;18.02;11.45;;;;;;;37.04;6.98;102349.69;5040938;28;20083;-63
2021/10/08 06:26:46;;;;;;;17.92;12.23;;;;;;;37.35;7.51;102344.81;5042299;28;20043;-61
2021/10/08 06:29:11;;;;;;;18.92;11.80;;;;;;;37.66;6.78;102341.88;5043913;28;20453;-62
2021/10/08 06:31:37;;;;;;;16.38;11.52;;;;;;;38.11;6.83;102340.28;5041361;28;20033;-62
2021/10/08 06:34:03;;;;;;;16.42;11.63;;;;;;;38.46;6.47;102339.28;5041549;28;20454;-64
2021/10/08 06:36:29;;;;;;;18.92;11.38;;;;;;;38.52;6.60;102334.63;5041529;28;20518;-63
2021/10/08 06:38:54;;;;;;;16.17;11.18;;;;;;;38.71;6.51;102336.09;5039104;28;20030;-63
2021/10/08 06:41:20;;;;;;;17.75;11.55;;;;;;;38.67;6.16;102337.72;5032955;28;20064;-62
2021/10/08 06:43:45;;;;;;;18.67;11.73;;;;;;;38.57;6.28;102287.16;5031071;28;20452;-62
2021/10/08 06:46:11;;;;;;;17.67;11.35;;;;;;;38.86;6.32;102335.50;5032718;28;20032;-62
2021/10/08 06:48:36;;;;;;;23.88;11.88;;;;;;;38.85;5.90;102285.38;5035767;28;20033;-63
2021/10/08 06:51:02;;;;;;;14.70;10.60;;;;;;;39.48;5.50;102342.09;5043889;28;20144;-63
2021/10/08 06:53:27;;;;;;;16.60;10.75;;;;;;;39.71;5.38;102328.06;5044802;28;20408;-68
2021/10/08 06:55:53;;;;;;;15.02;9.82;;;;;;;40.16;5.23;102346.56;5050259;28;20045;-69
2021/10/08 06:58:18;;;;;;;10.88;9.75;;;;;;;40.42;5.13;102340.41;5048468;28;20025;-70
2021/10/08 07:00:44;;;;;;;18.13;10.43;;;;;;;40.54;4.88;102338.25;5052087;28;20041;-70
2021/10/08 07:03:09;;;;;;;18.23;10.68;;;;;;;40.75;4.87;102352.50;5034393;28;20131;-70
2021/10/08 07:05:35;;;;;;;17.85;10.68;;;;;;;40.59;4.77;102320.63;5045065;28;20108;-70
2021/10/08 07:08:01;;;;;;;17.15;9.55;;;;;;;40.80;4.70;102343.28;5041576;28;20021;-70
2021/10/08 07:10:27;;;;;;;17.33;10.98;;;;;;;40.64;5.16;102345.94;5040329;28;20481;-71
2021/10/08 07:12:53;;;;;;;18.75;10.70;;;;;;;40.10;5.18;102343.97;5042306;28;20037;-72
2021/10/08 07:15:19;;;;;;;16.95;11.20;;;;;;;39.57;5.29;102338.81;5006296;28;20032;-69
2021/10/08 07:17:48;;;;;;;18.83;11.85;;;;;;;39.21;5.67;102347.56;5048069;28;20033;-68
2021/10/08 07:20:18;;;;;;;19.25;12.95;;;;;;;38.70;5.89;102348.41;5042262;28;20025;-69
2021/10/08 07:22:45;;;;;;;25.98;14.02;;;;;;;38.36;6.30;102334.34;5030880;28;20041;-69
2021/10/08 07:25:11;;;;;;;21.63;12.73;;;;;;;37.77;6.19;102341.00;5031049;28;20393;-74
2021/10/08 07:27:37;;;;;;;29.42;14.85;;;;;;;37.24;6.59;102340.06;5047332;28;20044;-72
2021/10/08 07:30:05;;;;;;;23.65;13.27;;;;;;;37.10;6.76;102325.50;5031801;28;20474;-68
2021/10/08 07:32:31;;;;;;;18.45;12.32;;;;;;;36.71;7.00;102346.31;5043473;28;20033;-67
2021/10/08 07:34:56;;;;;;;18.48;12.88;;;;;;;35.97;7.24;102347.31;5061963;28;20139;-67
2021/10/08 07:37:22;;;;;;;20.77;11.27;;;;;;;34.09;8.53;102348.88;5058076;28;20171;-67
2021/10/08 07:39:48;;;;;;;19.15;11.85;;;;;;;31.20;10.30;102347.22;5064769;28;20043;-66
2021/10/08 07:42:13;;;;;;;18.80;12.15;;;;;;;28.52;12.30;102348.75;5069780;28;20128;-66
2021/10/08 07:44:39;;;;;;;18.48;12.27;;;;;;;26.02;13.97;102355.44;5069932;28;20490;-68
2021/10/08 07:47:05;;;;;;;24.55;11.73;;;;;;;23.87;16.29;102356.19;5070300;28;20422;-66
2021/10/08 07:49:31;;;;;;;21.33;11.55;;;;;;;22.33;17.97;102365.88;5069851;28;20070;-66
2021/10/08 07:51:56;;;;;;;17.77;12.13;;;;;;;20.95;19.19;102350.56;5052762;28;20032;-69
2021/10/08 07:54:21;;;;;;;22.27;11.55;;;;;;;19.94;20.66;102364.25;5070528;28;20032;-64
2021/10/08 07:56:47;;;;;;;19.80;11.77;;;;;;;19.09;21.71;102368.97;5069493;28;20028;-65
2021/10/08 07:59:12;;;;;;;17.92;11.63;;;;;;;18.40;22.87;102365.03;5068594;28;20392;-68
2021/10/08 08:01:38;;;;;;;19.35;10.93;;;;;;;17.68;23.29;102320.44;5070498;28;20040;-67
2021/10/08 08:04:03;;;;;;;17.70;11.02;;;;;;;17.43;24.38;102359.22;5069565;28;20582;-70
2021/10/08 08:06:29;;;;;;;15.80;10.82;;;;;;;16.97;24.77;102341.53;5069143;28;20031;-68
2021/10/08 08:08:54;;;;;;;17.60;11.00;;;;;;;16.84;24.72;102352.31;5069945;28;20044;-66
2021/10/08 08:11:20;;;;;;;18.95;11.15;;;;;;;16.72;25.03;102370.25;5069836;28;20040;-66
2021/10/08 08:13:46;;;;;;;19.35;10.07;;;;;;;16.49;25.17;102354.59;5070040;28;20039;-66
2021/10/08 08:16:11;;;;;;;18.13;9.90;;;;;;;16.25;25.49;102354.31;5071709;28;20056;-68
2021/10/08 08:18:37;;;;;;;21.30;10.68;;;;;;;16.10;25.42;102361.59;5070894;28;20031;-67
2021/10/08 08:21:03;;;;;;;22.70;10.00;;;;;;;15.73;25.62;102331.47;5069733;28;20028;-68
2021/10/08 08:23:29;;;;;;;16.70;9.07;;;;;;;15.60;25.77;102358.38;5071007;28;20110;-67
2021/10/08 08:25:55;;;;;;;15.48;8.98;;;;;;;15.53;26.20;102360.56;5070568;28;20492;-67
2021/10/08 08:28:23;;;;;;;22.55;9.38;;;;;;;15.52;26.46;102358.84;5071119;28;20030;-67
2021/10/08 08:30:49;;;;;;;19.15;10.35;;;;;;;15.44;26.92;102355.75;5069747;28;20033;-69
2021/10/08 08:33:15;;;;;;;25.30;11.35;;;;;;;15.43;26.63;102354.88;5071305;28;20409;-69
2021/10/08 08:35:41;;;;;;;22.20;10.05;;;;;;;15.31;26.76;102355.59;5053112;28;20035;-67
2021/10/08 08:38:06;;;;;;;24.73;9.98;;;;;;;15.26;26.97;102350.50;5042545;28;20040;-62
2021/10/08 08:40:32;;;;;;;20.08;9.93;;;;;;;15.15;27.05;102361.94;5049095;28;20496;-63
2021/10/08 08:42:59;;;;;;;17.58;9.32;;;;;;;15.12;26.76;102366.63;5048538;28;20043;-66
2021/10/08 08:45:26;;;;;;;20.52;9.07;;;;;;;14.99;26.67;102366.50;5050496;28;20123;-68
2021/10/08 08:48:08;;;;;;;16.48;8.57;;;;;;;15.00;26.90;102363.72;5049635;28;20083;-63
2021/10/08 08:50:38;;;;;;;19.83;8.35;;;;;;;14.80;27.19;102364.00;5049928;28;20086;-64
2021/10/08 08:53:05;;;;;;;15.73;8.88;;;;;;;14.64;27.50;102367.53;5050196;28;20086;-63
2021/10/08 08:55:31;;;;;;;11.52;7.45;;;;;;;14.28;27.28;102309.41;5049460;28;20040;-61
2021/10/08 08:57:56;;;;;;;16.77;7.60;;;;;;;14.54;27.07;102358.25;5044679;28;20543;-61
2021/10/08 09:00:23;;;;;;;11.70;8.07;;;;;;;14.58;27.32;102362.50;5047878;28;20033;-59
2021/10/08 09:03:12;;;;;;;12.45;7.20;;;;;;;14.47;26.73;102320.88;5048365;28;20029;-59
2021/10/08 09:05:38;;;;;;;13.82;6.55;;;;;;;14.55;26.76;102352.75;5048244;28;20037;-61
2021/10/08 09:08:08;;;;;;;23.50;8.35;;;;;;;14.59;26.58;102358.84;5042569;28;20032;-61
2021/10/08 09:10:36;;;;;;;11.98;6.32;;;;;;;14.49;26.51;102347.72;5028920;28;20052;-62
2021/10/08 09:13:03;;;;;;;15.65;6.72;;;;;;;14.42;26.67;102357.13;5030052;28;20041;-61
2021/10/08 09:15:43;;;;;;;9.57;6.15;;;;;;;14.45;27.00;102356.94;5029823;28;20116;-61
2021/10/08 09:18:10;;;;;;;14.05;6.43;;;;;;;14.37;26.68;102352.00;5030017;28;20125;-61
2021/10/08 09:20:38;;;;;;;12.57;6.30;;;;;;;14.13;26.72;102314.69;5030258;28;20470;-63
2021/10/08 09:23:06;;;;;;;16.20;6.85;;;;;;;14.29;27.04;102348.88;5028149;28;20029;-62
2021/10/08 09:25:34;;;;;;;13.45;6.72;;;;;;;14.37;27.22;102351.13;5028167;28;20112;-61
2021/10/08 09:28:05;;;;;;;12.15;6.43;;;;;;;14.39;26.89;102352.78;5030049;28;20037;-62
2021/10/08 09:30:43;;;;;;;11.73;6.85;;;;;;;14.42;26.98;102349.91;5029444;28;20029;-61
2021/10/08 09:33:11;;;;;;;13.98;6.50;;;;;;;14.37;27.06;102343.06;5029332;28;20029;-66
2021/10/08 09:35:38;;;;;;;22.27;7.30;;;;;;;14.39;27.28;102339.28;5033464;28;20035;-61
2021/10/08 09:38:11;;;;;;;18.38;7.90;;;;;;;14.52;26.80;102341.31;5049471;28;20064;-59
2021/10/08 09:40:56;;;;;;;12.02;8.05;;;;;;;14.54;27.19;102331.31;5048849;28;20037;-62
2021/10/08 09:43:30;;;;;;;11.57;7.50;;;;;;;14.63;26.32;102328.06;5048706;28;20041;-64
2021/10/08 09:46:05;;;;;;;14.82;7.25;;;;;;;14.59;26.77;102331.91;5049396;28;20441;-61
2021/10/08 09:48:30;;;;;;;14.23;7.47;;;;;;;14.59;27.03;102321.13;5047784;28;20037;-62
2021/10/08 09:51:29;;;;;;;11.52;7.82;;;;;;;14.67;26.71;102317.97;5049466;28;20465;-62
2021/10/08 09:53:55;;;;;;;15.32;8.30;;;;;;;14.52;26.83;102326.00;5047620;28;20057;-63
2021/10/08 09:56:37;;;;;;;21.88;7.63;;;;;;;14.63;26.45;102330.75;5053366;28;20150;-60
2021/10/08 09:59:04;;;;;;;14.40;7.53;;;;;;;14.53;26.72;102321.47;5053668;28;20048;-57
2021/10/08 10:01:33;;;;;;;15.40;7.75;;;;;;;14.53;27.34;102321.47;5053620;28;20030;-56
2021/10/08 10:03:59;;;;;;;11.50;7.57;;;;;;;14.48;27.11;102319.91;5051546;28;20128;-57
2021/10/08 10:06:25;;;;;;;15.95;7.88;;;;;;;14.50;27.04;102312.63;5050636;28;20033;-63
2021/10/08 10:08:52;;;;;;;13.93;7.00;;;;;;;14.53;26.93;102316.09;5035264;28;20149;-61
2021/10/08 10:11:20;;;;;;;15.80;6.97;;;;;;;14.54;26.78;102315.13;5051820;28;20427;-63
2021/10/08 10:13:47;;;;;;;12.45;7.93;;;;;;;14.46;25.99;102304.78;5052321;28;20108;-64
2021/10/08 10:16:17;;;;;;;10.95;6.88;;;;;;;14.40;26.47;102310.53;5049091;28;20485;-64
2021/10/08 10:18:48;;;;;;;13.77;7.10;;;;;;;14.41;26.51;102310.44;5049596;28;20049;-62
2021/10/08 10:21:28;;;;;;;13.45;7.05;;;;;;;14.47;27.16;102312.78;5050788;28;20025;-66
2021/10/08 10:23:56;;;;;;;11.88;6.78;;;;;;;14.44;25.64;102306.69;5051271;28;20108;-63
2021/10/08 10:26:24;;;;;;;18.58;7.45;;;;;;;14.41;26.17;102307.72;5035021;28;20544;-62
2021/10/08 10:28:51;;;;;;;13.07;7.65;;;;;;;14.33;26.45;102293.84;5053059;28;20033;-62
2021/10/08 10:31:18;;;;;;;15.05;7.45;;;;;;;14.12;27.70;102277.09;5052947;28;20025;-61
2021/10/08 10:33:45;;;;;;;13.35;7.85;;;;;;;14.27;27.48;102302.28;5048126;28;20061;-61
2021/10/08 10:36:27;;;;;;;16.75;7.70;;;;;;;14.39;27.54;102296.19;5052470;28;20040;-63
2021/10/08 10:39:20;;;;;;;13.15;8.40;;;;;;;14.48;27.08;102290.28;5051536;28;20024;-61
2021/10/08 10:42:17;;;;;;;17.35;7.93;;;;;;;14.52;27.30;102287.41;5048771;28;20032;-63
2021/10/08 10:45:21;;;;;;;12.98;7.20;;;;;;;14.56;27.12;102288.94;5039687;28;20039;-67
2021/10/08 10:48:20;;;;;;;12.52;8.15;;;;;;;14.61;26.19;102282.34;5042990;28;20112;-66
2021/10/08 10:51:14;;;;;;;11.93;7.10;;;;;;;14.52;26.05;102279.31;5050510;28;20596;-66
2021/10/08 10:53:50;;;;;;;11.40;7.43;;;;;;;14.36;26.17;102280.19;5051624;28;20036;-67
2021/10/08 10:56:34;;;;;;;13.43;7.60;;;;;;;14.31;26.17;102276.88;5049717;28;20029;-66
2021/10/08 10:59:24;;;;;;;12.55;7.68;;;;;;;14.27;26.27;102276.19;5051581;28;20029;-66
2021/10/08 11:02:18;;;;;;;18.65;8.80;;;;;;;14.20;26.67;102272.97;5052442;28;20033;-67
2021/10/08 11:04:46;;;;;;;14.35;7.78;;;;;;;13.92;27.29;102242.22;5049996;28;20051;-67
2021/10/08 11:07:22;;;;;;;14.23;7.68;;;;;;;14.11;27.03;102265.41;5049751;28;20032;-69
2021/10/08 11:09:56;;;;;;;13.23;7.57;;;;;;;14.18;26.87;102263.25;5050622;28;20084;-67
2021/10/08 11:12:42;;;;;;;15.25;7.88;;;;;;;14.25;27.23;102269.16;5051745;28;20115;-70
2021/10/08 11:15:17;;;;;;;14.48;8.15;;;;;;;14.26;26.91;102269.06;5050426;28;20029;-67
2021/10/08 11:17:54;;;;;;;15.55;7.60;;;;;;;14.26;26.35;102257.44;5052194;28;20128;-66
2021/10/08 11:20:26;;;;;;;13.02;7.32;;;;;;;14.22;25.89;102259.41;5051906;28;20392;-68